createdAt,value
2018-11-10T00:00:21.801Z,24.27
2018-11-10T00:02:51.501Z,24.57
2018-11-10T00:05:21.567Z,25.90
2018-11-10T00:07:50.787Z,26.30
2018-11-10T00:10:34.814Z,26.67
2018-11-10T00:13:03.986Z,25.27
2018-11-10T00:15:33.158Z,25.63
2018-11-10T00:18:02.323Z,24.17
2018-11-10T00:20:31.518Z,26.00
2018-11-10T00:23:00.764Z,25.83
2018-11-10T00:25:29.953Z,26.03
2018-11-10T00:27:59.169Z,25.27
2018-11-10T00:30:28.325Z,24.67
2018-11-10T00:32:57.473Z,24.97
2018-11-10T00:35:27.922Z,24.00
2018-11-10T00:37:57.082Z,26.10
2018-11-10T00:40:26.297Z,24.63
2018-11-10T00:42:55.460Z,26.97
2018-11-10T00:45:24.722Z,25.73
2018-11-10T00:47:53.877Z,25.90
2018-11-10T00:50:23.086Z,25.70
2018-11-10T00:52:52.242Z,25.37
2018-11-10T00:55:21.448Z,24.97
2018-11-10T00:57:50.584Z,25.07
2018-11-10T01:00:19.790Z,24.50
2018-11-10T01:02:48.966Z,25.50
2018-11-10T01:05:18.128Z,25.47
2018-11-10T01:07:47.295Z,24.87
2018-11-10T01:10:16.437Z,24.30
2018-11-10T01:12:45.586Z,23.80
2018-11-10T01:15:15.838Z,25.33
2018-11-10T01:17:45.450Z,25.33
2018-11-10T01:20:14.975Z,25.20
2018-11-10T01:22:44.174Z,25.03
2018-11-10T01:25:13.348Z,26.93
2018-11-10T01:27:42.701Z,25.60
2018-11-10T01:30:14.782Z,36.30
2018-11-10T01:32:44.831Z,26.87
2018-11-10T01:35:14.561Z,26.10
2018-11-10T01:37:43.811Z,28.17
2018-11-10T01:40:14.197Z,26.33
2018-11-10T01:42:44.470Z,25.60
2018-11-10T01:45:15.769Z,26.00
2018-11-10T01:47:45.331Z,26.47
2018-11-10T01:50:14.543Z,27.20
2018-11-10T01:52:43.893Z,26.77
2018-11-10T01:55:13.250Z,26.80
2018-11-10T01:57:43.148Z,25.73
2018-11-10T02:00:14.855Z,26.33
2018-11-10T02:06:12.987Z,26.60
2018-11-10T02:08:43.155Z,27.67
2018-11-10T02:11:26.429Z,25.63
2018-11-10T02:14:04.814Z,24.93
2018-11-10T02:16:50.174Z,25.80
2018-11-10T02:19:25.165Z,24.83
2018-11-10T02:25:11.059Z,24.27
2018-11-10T02:27:43.539Z,24.37
2018-11-10T02:30:13.224Z,24.90
2018-11-10T02:32:42.689Z,23.60
2018-11-10T02:35:20.326Z,23.53
2018-11-10T02:37:49.515Z,24.77
2018-11-10T02:40:18.672Z,23.53
2018-11-10T02:42:47.811Z,23.93
2018-11-10T02:45:16.954Z,22.83
2018-11-10T02:47:46.151Z,23.70
2018-11-10T02:50:15.333Z,23.50
2018-11-10T02:52:44.511Z,22.60
2018-11-10T02:55:13.675Z,22.47
2018-11-10T02:57:43.303Z,22.20
2018-11-10T03:00:13.803Z,23.47
2018-11-10T03:02:42.931Z,22.47
2018-11-10T03:05:12.219Z,21.83
2018-11-10T03:07:41.400Z,22.43
2018-11-10T03:10:11.436Z,21.90
2018-11-10T03:12:41.416Z,22.60
2018-11-10T03:15:11.659Z,22.07
2018-11-10T03:17:40.855Z,22.00
2018-11-10T03:20:12.156Z,22.53
2018-11-10T03:22:41.315Z,22.70
2018-11-10T03:25:10.894Z,22.07
2018-11-10T03:27:40.516Z,22.17
2018-11-10T03:30:09.970Z,22.57
2018-11-10T03:32:39.119Z,22.37
2018-11-10T03:35:09.035Z,21.87
2018-11-10T03:37:38.226Z,21.17
2018-11-10T03:40:08.755Z,21.20
2018-11-10T03:42:38.123Z,21.17
2018-11-10T03:45:09.110Z,20.63
2018-11-10T03:47:38.331Z,21.03
2018-11-10T03:50:08.174Z,20.17
2018-11-10T03:52:37.355Z,20.47
2018-11-10T03:55:07.218Z,19.63
2018-11-10T03:57:36.346Z,19.87
2018-11-10T04:00:06.455Z,20.10
2018-11-10T04:02:35.603Z,19.07
2018-11-10T04:05:04.755Z,19.83
2018-11-10T04:07:33.924Z,20.07
2018-11-10T04:10:03.242Z,20.40
2018-11-10T04:12:32.402Z,21.03
2018-11-10T04:15:01.680Z,20.73
2018-11-10T04:17:30.903Z,20.40
2018-11-10T04:20:00.035Z,20.67
2018-11-10T04:22:34.047Z,20.10
2018-11-10T04:25:04.417Z,21.60
2018-11-10T04:27:34.290Z,20.43
2018-11-10T04:30:04.566Z,20.70
2018-11-10T04:32:34.337Z,21.43
2018-11-10T04:35:03.566Z,21.77
2018-11-10T04:37:32.714Z,21.10
2018-11-10T04:40:01.846Z,22.43
2018-11-10T04:42:31.012Z,21.30
2018-11-10T04:45:00.155Z,21.60
2018-11-10T04:47:29.327Z,23.03
2018-11-10T04:49:58.527Z,21.47
2018-11-10T04:52:27.611Z,21.37
2018-11-10T04:54:56.742Z,21.13
2018-11-10T04:57:25.912Z,21.33
2018-11-10T04:59:55.034Z,21.73
2018-11-10T05:02:24.211Z,21.23
2018-11-10T05:04:53.512Z,21.27
2018-11-10T05:07:22.682Z,20.67
2018-11-10T05:09:51.811Z,21.63
2018-11-10T05:12:20.971Z,22.07
2018-11-10T05:14:50.106Z,22.07
2018-11-10T05:17:19.290Z,21.77
2018-11-10T05:19:48.401Z,20.93
2018-11-10T05:22:17.594Z,22.70
2018-11-10T05:24:46.719Z,22.90
2018-11-10T05:27:15.887Z,22.23
2018-11-10T05:29:45.027Z,22.23
2018-11-10T05:32:14.183Z,23.30
2018-11-10T05:34:43.311Z,23.17
2018-11-10T05:37:12.876Z,23.97
2018-11-10T05:39:42.014Z,22.77
2018-11-10T05:42:11.174Z,22.33
2018-11-10T05:44:40.591Z,24.70
2018-11-10T05:47:09.865Z,24.40
2018-11-10T05:49:38.998Z,24.17
2018-11-10T05:52:08.251Z,24.90
2018-11-10T05:54:38.487Z,25.07
2018-11-10T05:57:09.465Z,23.50
2018-11-10T05:59:38.934Z,25.37
2018-11-10T06:02:08.426Z,24.00
2018-11-10T06:04:37.745Z,25.80
2018-11-10T06:07:07.046Z,25.47
2018-11-10T06:09:36.240Z,26.60
2018-11-10T06:12:05.491Z,25.77
2018-11-10T06:14:34.714Z,25.90
2018-11-10T06:17:04.654Z,25.03
2018-11-10T06:19:33.765Z,26.33
2018-11-10T06:25:03.022Z,26.57
2018-11-10T06:27:32.182Z,26.60
2018-11-10T06:30:01.360Z,27.37
2018-11-10T06:32:30.566Z,27.77
2018-11-10T06:34:59.682Z,28.27
2018-11-10T06:37:28.804Z,26.80
2018-11-10T06:39:57.971Z,28.17
2018-11-10T06:42:27.096Z,28.00
2018-11-10T06:44:56.191Z,27.43
2018-11-10T06:47:25.338Z,28.43
2018-11-10T06:49:54.448Z,28.97
2018-11-10T06:52:23.607Z,28.03
2018-11-10T06:54:52.751Z,27.17
2018-11-10T06:57:21.876Z,27.43
2018-11-10T06:59:51.130Z,26.90
2018-11-10T07:02:20.299Z,28.27
2018-11-10T07:04:49.470Z,28.20
2018-11-10T07:07:19.873Z,28.13
2018-11-10T07:09:57.905Z,28.03
2018-11-10T07:12:28.139Z,28.03
2018-11-10T07:14:57.248Z,27.57
2018-11-10T07:17:26.449Z,27.07
2018-11-10T07:19:55.558Z,26.50
2018-11-10T07:22:24.713Z,26.60
2018-11-10T07:24:53.889Z,26.30
2018-11-10T07:27:23.493Z,28.33
2018-11-10T07:29:52.731Z,27.73
2018-11-10T07:32:21.859Z,27.13
2018-11-10T07:34:51.019Z,27.43
2018-11-10T07:37:20.216Z,27.73
2018-11-10T07:39:49.307Z,27.83
2018-11-10T07:42:19.370Z,27.97
2018-11-10T07:44:49.898Z,29.33
2018-11-10T07:47:21.430Z,27.53
2018-11-10T07:49:50.712Z,27.87
2018-11-10T07:52:20.211Z,28.93
2018-11-10T07:54:49.522Z,29.03
2018-11-10T07:57:19.063Z,27.93
2018-11-10T07:59:50.497Z,29.57
2018-11-10T08:02:19.774Z,29.63
2018-11-10T08:04:48.992Z,28.97
2018-11-10T08:07:18.716Z,29.23
2018-11-10T08:09:47.962Z,30.47
2018-11-10T08:12:17.191Z,30.60
2018-11-10T08:14:46.316Z,30.47
2018-11-10T08:17:15.845Z,31.60
2018-11-10T08:19:44.953Z,30.77
2018-11-10T08:22:14.182Z,31.60
2018-11-10T08:24:43.354Z,30.50
2018-11-10T08:27:13.950Z,30.50
2018-11-10T08:29:43.212Z,30.30
2018-11-10T08:32:12.447Z,32.80
2018-11-10T08:34:41.582Z,31.10
2018-11-10T08:37:10.744Z,31.73
2018-11-10T08:39:40.935Z,32.33
2018-11-10T08:42:10.163Z,31.63
2018-11-10T08:44:39.311Z,32.33
2018-11-10T08:47:08.654Z,32.27
2018-11-10T08:49:37.878Z,31.00
2018-11-10T08:52:07.048Z,32.47
2018-11-10T08:54:36.213Z,32.13
2018-11-10T08:57:05.469Z,32.20
2018-11-10T08:59:36.387Z,33.10
2018-11-10T09:02:05.787Z,32.70
2018-11-10T09:04:35.824Z,31.30
2018-11-10T09:07:05.113Z,31.03
2018-11-10T09:09:34.271Z,30.87
2018-11-10T09:12:09.029Z,31.47
2018-11-10T09:14:40.727Z,32.67
2018-11-10T09:17:10.351Z,32.87
2018-11-10T09:19:39.614Z,32.23
2018-11-10T09:22:09.771Z,32.93
2018-11-10T09:24:38.991Z,32.37
2018-11-10T09:27:08.576Z,31.87
2018-11-10T09:29:40.236Z,31.67
2018-11-10T09:32:10.704Z,31.77
2018-11-10T09:34:40.143Z,31.47
2018-11-10T09:37:09.326Z,31.87
2018-11-10T09:39:38.907Z,31.57
2018-11-10T09:42:08.353Z,30.83
2018-11-10T09:44:37.647Z,30.27
2018-11-10T09:47:06.935Z,30.10
2018-11-10T09:49:36.096Z,29.30
2018-11-10T09:52:05.231Z,30.13
2018-11-10T09:54:35.520Z,31.37
2018-11-10T09:57:05.281Z,30.57
2018-11-10T09:59:34.489Z,31.47
2018-11-10T10:02:04.192Z,30.17
2018-11-10T10:04:33.608Z,29.37
2018-11-10T10:07:02.792Z,29.43
2018-11-10T10:09:31.995Z,31.00
2018-11-10T10:12:01.260Z,29.93
2018-11-10T10:14:30.458Z,29.80
2018-11-10T10:16:59.597Z,29.47
2018-11-10T10:19:28.754Z,29.43
2018-11-10T10:21:57.904Z,30.03
2018-11-10T10:24:27.126Z,27.93
2018-11-10T10:26:56.267Z,28.10
2018-11-10T10:29:25.382Z,28.93
2018-11-10T10:31:54.544Z,28.07
2018-11-10T10:34:23.804Z,27.87
2018-11-10T10:36:52.931Z,27.70
2018-11-10T10:39:22.120Z,27.17
2018-11-10T10:41:51.379Z,27.43
2018-11-10T10:44:20.633Z,26.97
2018-11-10T10:46:49.733Z,26.13
2018-11-10T10:49:19.051Z,26.07
2018-11-10T10:51:48.128Z,27.43
2018-11-10T10:54:17.530Z,26.90
2018-11-10T10:56:46.835Z,26.13
2018-11-10T10:59:16.085Z,26.50
2018-11-10T11:01:50.811Z,27.63
2018-11-10T11:04:25.146Z,26.67
2018-11-10T11:06:54.331Z,25.47
2018-11-10T11:09:23.545Z,25.50
2018-11-10T11:11:52.648Z,25.67
2018-11-10T11:14:23.035Z,25.07
2018-11-10T11:16:52.183Z,25.53
2018-11-10T11:19:22.524Z,24.70
2018-11-10T11:21:51.824Z,26.23
2018-11-10T11:24:21.311Z,24.63
2018-11-10T11:26:51.059Z,25.77
2018-11-10T11:29:20.290Z,24.67
2018-11-10T11:31:49.361Z,24.40
2018-11-10T11:34:19.138Z,24.83
2018-11-10T11:36:48.508Z,25.03
2018-11-10T11:39:17.836Z,25.40
2018-11-10T11:41:47.544Z,24.90
2018-11-10T11:44:16.699Z,24.83
2018-11-10T11:46:46.015Z,25.30
2018-11-10T11:49:15.471Z,24.00
2018-11-10T11:51:44.607Z,24.73
2018-11-10T11:54:14.030Z,25.07
2018-11-10T11:56:43.592Z,24.67
2018-11-10T11:59:13.184Z,24.77
2018-11-10T12:01:42.495Z,24.90
2018-11-10T12:04:12.001Z,25.40
2018-11-10T12:06:41.421Z,26.40
2018-11-10T12:09:11.293Z,25.13
2018-11-10T12:11:41.044Z,25.07
2018-11-10T12:14:10.865Z,25.57
2018-11-10T12:16:40.379Z,25.93
2018-11-10T12:19:09.526Z,26.93
2018-11-10T12:21:38.695Z,25.17
2018-11-10T12:24:07.918Z,23.30
2018-11-10T12:26:37.100Z,24.07
2018-11-10T12:29:06.427Z,24.27
2018-11-10T12:31:35.586Z,24.00
2018-11-10T12:34:04.832Z,23.10
2018-11-10T12:36:34.037Z,24.20
2018-11-10T12:39:04.780Z,25.20
2018-11-10T12:41:34.385Z,24.67
2018-11-10T12:44:03.694Z,24.13
2018-11-10T12:46:32.904Z,25.33
2018-11-10T12:49:02.419Z,24.33
2018-11-10T12:51:31.773Z,25.67
2018-11-10T12:54:00.912Z,24.50
2018-11-10T12:56:30.163Z,26.07
2018-11-10T12:59:00.756Z,25.50
2018-11-10T13:01:30.333Z,26.33
2018-11-10T13:03:59.825Z,25.13
2018-11-10T13:06:30.367Z,25.00
2018-11-10T13:09:00.044Z,25.20
2018-11-10T13:11:29.287Z,25.63
2018-11-10T13:13:59.633Z,25.20
2018-11-10T13:16:29.984Z,25.23
2018-11-10T13:18:59.662Z,24.20
2018-11-10T13:21:29.140Z,25.70
2018-11-10T13:23:58.981Z,26.03
2018-11-10T13:26:28.619Z,26.03
2018-11-10T13:28:57.748Z,24.87
2018-11-10T13:31:27.558Z,24.80
2018-11-10T13:33:56.955Z,23.40
2018-11-10T13:36:26.542Z,23.40
2018-11-10T13:38:55.864Z,24.63
2018-11-10T13:41:25.041Z,25.60
2018-11-10T13:43:54.304Z,25.50
2018-11-10T13:46:23.344Z,23.03
2018-11-10T13:48:52.610Z,22.07
2018-11-10T13:51:23.297Z,27.90
2018-11-10T13:53:53.007Z,41.53
2018-11-10T13:56:23.439Z,29.57
2018-11-10T13:58:56.350Z,28.30
2018-11-10T14:01:25.783Z,23.70
2018-11-10T14:03:55.646Z,21.03
2018-11-10T14:06:25.093Z,19.67
2018-11-10T14:08:54.228Z,19.43
2018-11-10T14:11:23.752Z,20.33
2018-11-10T14:13:52.895Z,19.43
2018-11-10T14:16:22.703Z,19.60
2018-11-10T14:18:51.871Z,19.87
2018-11-10T14:21:21.023Z,19.50
2018-11-10T14:23:50.157Z,18.93
2018-11-10T14:26:19.477Z,18.17
2018-11-10T14:28:48.595Z,18.00
2018-11-10T14:31:17.860Z,18.63
2018-11-10T14:33:47.248Z,18.13
2018-11-10T14:36:16.465Z,17.27
2018-11-10T14:38:45.651Z,17.63
2018-11-10T14:41:15.341Z,21.13
2018-11-10T14:43:44.481Z,18.53
2018-11-10T14:46:13.659Z,17.60
2018-11-10T14:48:42.955Z,19.70
2018-11-10T14:51:12.164Z,18.63
2018-11-10T14:53:41.372Z,26.40
2018-11-10T14:56:11.220Z,23.60
2018-11-10T14:58:40.835Z,24.07
2018-11-10T15:01:09.908Z,21.20
2018-11-10T15:03:39.168Z,20.37
2018-11-10T15:06:08.438Z,20.93
2018-11-10T15:08:37.688Z,21.00
2018-11-10T15:11:07.592Z,19.20
2018-11-10T15:13:37.767Z,18.87
2018-11-10T15:16:07.336Z,17.60
2018-11-10T15:18:36.735Z,18.40
2018-11-10T15:21:06.015Z,17.90
2018-11-10T15:23:35.166Z,17.73
2018-11-10T15:26:05.063Z,17.03
2018-11-10T15:28:34.296Z,19.27
2018-11-10T15:31:03.523Z,18.30
2018-11-10T15:33:32.699Z,18.37
2018-11-10T15:36:01.917Z,18.27
2018-11-10T15:38:31.067Z,18.07
2018-11-10T15:41:00.242Z,17.57
2018-11-10T15:43:29.448Z,17.80
2018-11-10T15:45:58.607Z,18.53
2018-11-10T15:48:27.739Z,17.63
2018-11-10T15:50:56.957Z,18.07
2018-11-10T15:53:27.379Z,17.20
2018-11-10T15:55:57.908Z,17.30
2018-11-10T15:58:27.674Z,17.03
2018-11-10T16:00:56.806Z,18.03
2018-11-10T16:03:26.055Z,18.23
2018-11-10T16:05:55.333Z,18.53
2018-11-10T16:08:27.385Z,17.57
2018-11-10T16:10:57.283Z,17.63
2018-11-10T16:13:27.950Z,17.60
2018-11-10T16:15:57.175Z,17.37
2018-11-10T16:18:27.854Z,16.40
2018-11-10T16:20:57.741Z,18.37
2018-11-10T16:23:26.810Z,18.07
2018-11-10T16:25:56.622Z,15.13
2018-11-10T16:28:26.079Z,15.00
2018-11-10T16:30:56.699Z,15.07
2018-11-10T16:33:26.097Z,14.80
2018-11-10T16:35:56.638Z,14.30
2018-11-10T16:38:25.991Z,15.63
2018-11-10T16:40:55.264Z,15.43
2018-11-10T16:43:24.567Z,14.63
2018-11-10T16:45:54.613Z,15.27
2018-11-10T16:48:24.127Z,14.70
2018-11-10T16:50:54.650Z,14.43
2018-11-10T16:53:24.601Z,14.33
2018-11-10T16:55:54.782Z,14.00
2018-11-10T16:58:24.113Z,14.67
2018-11-10T17:00:53.304Z,14.57
2018-11-10T17:03:22.500Z,14.60
2018-11-10T17:05:51.735Z,14.60
2018-11-10T17:08:21.759Z,15.03
2018-11-10T17:10:50.996Z,14.50
2018-11-10T17:13:20.209Z,14.17
2018-11-10T17:15:49.465Z,14.40
2018-11-10T17:18:18.869Z,14.40
2018-11-10T17:20:48.108Z,14.10
2018-11-10T17:23:17.283Z,14.10
2018-11-10T17:25:47.285Z,13.93
2018-11-10T17:28:16.456Z,13.37
2018-11-10T17:30:45.593Z,13.47
2018-11-10T17:33:14.767Z,13.83
2018-11-10T17:35:43.889Z,12.97
2018-11-10T17:38:13.026Z,12.70
2018-11-10T17:40:42.139Z,12.60
2018-11-10T17:43:11.243Z,12.23
2018-11-10T17:45:40.408Z,10.40
2018-11-10T17:48:09.564Z,10.47
2018-11-10T17:50:38.735Z,10.20
2018-11-10T17:53:07.842Z,9.83
2018-11-10T17:55:37.021Z,9.30
2018-11-10T17:58:06.371Z,10.07
2018-11-10T18:00:35.504Z,10.10
2018-11-10T18:03:04.886Z,9.80
2018-11-10T18:05:34.072Z,10.43
2018-11-10T18:08:03.203Z,8.87
2018-11-10T18:10:33.315Z,8.37
2018-11-10T18:13:02.654Z,8.87
2018-11-10T18:15:31.779Z,9.20
2018-11-10T18:18:01.074Z,9.80
2018-11-10T18:20:30.250Z,9.93
2018-11-10T18:23:00.679Z,10.03
2018-11-10T18:25:29.912Z,10.33
2018-11-10T18:27:59.111Z,10.23
2018-11-10T18:30:28.272Z,10.30
2018-11-10T18:32:58.128Z,11.37
2018-11-10T18:35:27.685Z,10.30
2018-11-10T18:37:56.947Z,10.50
2018-11-10T18:40:26.232Z,10.80
2018-11-10T18:42:55.381Z,11.33
2018-11-10T18:45:24.584Z,11.40
2018-11-10T18:47:53.806Z,12.83
2018-11-10T18:50:22.966Z,11.80
2018-11-10T18:52:52.162Z,11.03
2018-11-10T18:55:21.329Z,11.90
2018-11-10T18:57:50.616Z,11.33
2018-11-10T19:00:19.808Z,11.23
2018-11-10T19:02:49.004Z,11.40
2018-11-10T19:05:18.295Z,11.13
2018-11-10T19:07:47.457Z,10.60
2018-11-10T19:10:17.654Z,10.97
2018-11-10T19:12:46.851Z,10.87
2018-11-10T19:15:18.158Z,10.37
2018-11-10T19:17:47.389Z,10.20
2018-11-10T19:20:17.228Z,10.13
2018-11-10T19:22:46.517Z,10.27
2018-11-10T19:25:15.922Z,10.50
2018-11-10T19:27:45.088Z,10.03
2018-11-10T19:30:17.712Z,10.80
2018-11-10T19:32:47.812Z,10.27
2018-11-10T19:35:17.845Z,10.03
2018-11-10T19:37:47.141Z,10.10
2018-11-10T19:40:16.383Z,10.53
2018-11-10T19:42:46.446Z,10.40
2018-11-10T19:45:19.747Z,10.07
2018-11-10T19:47:52.944Z,9.57
2018-11-10T19:50:25.565Z,9.80
2018-11-10T19:52:59.981Z,8.73
2018-11-10T19:55:30.775Z,9.17
2018-11-10T19:58:04.929Z,8.77
2018-11-10T20:00:42.942Z,9.10
2018-11-10T20:03:23.992Z,8.40
2018-11-10T20:06:03.693Z,8.40
2018-11-10T20:08:36.883Z,8.53
2018-11-10T20:11:06.243Z,8.77
2018-11-10T20:13:38.363Z,8.33
2018-11-10T20:16:10.333Z,9.80
2018-11-10T20:18:41.425Z,8.43
2018-11-10T20:21:10.788Z,11.93
2018-11-10T20:23:41.768Z,9.43
2018-11-10T20:26:11.213Z,10.07
2018-11-10T20:28:40.384Z,10.77
2018-11-10T20:31:10.019Z,11.37
2018-11-10T20:33:39.832Z,10.97
2018-11-10T20:36:10.329Z,11.37
2018-11-10T20:38:41.106Z,11.17
2018-11-10T20:41:10.539Z,11.10
2018-11-10T20:43:41.811Z,11.40
2018-11-10T20:46:11.238Z,10.77
2018-11-10T20:48:40.977Z,10.90
2018-11-10T20:51:10.226Z,10.87
2018-11-10T20:53:42.518Z,11.00
2018-11-10T20:56:11.830Z,9.70
2018-11-10T20:58:41.020Z,9.57
2018-11-10T21:01:10.209Z,10.17
2018-11-10T21:03:39.352Z,9.30
2018-11-10T21:06:08.498Z,10.13
2018-11-10T21:08:37.615Z,9.80
2018-11-10T21:11:06.815Z,10.07
2018-11-10T21:13:35.923Z,10.00
2018-11-10T21:16:05.291Z,10.13
2018-11-10T21:18:34.478Z,10.40
2018-11-10T21:21:03.687Z,9.97
2018-11-10T21:23:32.864Z,10.37
2018-11-10T21:26:02.081Z,9.53
2018-11-10T21:28:31.295Z,9.63
2018-11-10T21:31:00.479Z,10.43
2018-11-10T21:33:29.681Z,10.50
2018-11-10T21:36:01.768Z,11.07
2018-11-10T21:38:31.264Z,11.50
2018-11-10T21:41:00.466Z,10.83
2018-11-10T21:43:29.662Z,11.03
2018-11-10T21:45:58.999Z,10.67
2018-11-10T21:48:28.118Z,10.73
2018-11-10T21:50:57.270Z,10.50
2018-11-10T21:53:26.458Z,10.67
